Columbus, Ohio
Traffic Map
Current Weather Conditions
Columbus, Ohio
Overcast Light Rain
Overcast
61°
Feels Like: 61°
Wind Chill: 61° Ceiling: 1400
Heat Index: 61° Visibility: 10mi
Dew Point: 61° Wind: 8mph
Humidity: 100% Direction: 100° (E)
Pressure: 30.05in Gusts: 0mph
Raw Report DataKCMH 301316Z 10007KT 10SM -RA BKN014 OVC100 16/16 A3005 RMK AO2 LTG DSNT S RAE02B06 TSE00 P0000 T01610161
Traffic Incident Summary
Active as of:
Severity:
Category:
InformationThere was an issue retrieving the traffic information for this location. Please try a different location or try again shortly.
Advertisements
Track Severe Weather on mobile